sensor_id;sensor_type;location;lat;lon;timestamp;P1;durP1;ratioP1;P2;durP2;ratioP2
64601;SDS011;51013;42.630;23.192;2023-02-10T00:00:14;21.60;;;8.15;;
64601;SDS011;51013;42.630;23.192;2023-02-10T00:02:41;23.25;;;8.75;;
64601;SDS011;51013;42.630;23.192;2023-02-10T00:05:08;30.63;;;12.18;;
64601;SDS011;51013;42.630;23.192;2023-02-10T00:07:36;32.05;;;11.48;;
64601;SDS011;51013;42.630;23.192;2023-02-10T00:10:03;16.33;;;8.88;;
64601;SDS011;51013;42.630;23.192;2023-02-10T00:12:30;26.30;;;10.18;;
64601;SDS011;51013;42.630;23.192;2023-02-10T00:14:57;45.88;;;14.98;;
64601;SDS011;51013;42.630;23.192;2023-02-10T00:17:24;34.33;;;11.10;;
64601;SDS011;51013;42.630;23.192;2023-02-10T00:19:51;39.65;;;12.07;;
64601;SDS011;51013;42.630;23.192;2023-02-10T00:22:18;33.75;;;13.13;;
64601;SDS011;51013;42.630;23.192;2023-02-10T00:24:46;53.75;;;18.40;;
64601;SDS011;51013;42.630;23.192;2023-02-10T00:27:12;31.42;;;14.73;;
64601;SDS011;51013;42.630;23.192;2023-02-10T00:29:39;35.38;;;13.00;;
64601;SDS011;51013;42.630;23.192;2023-02-10T00:32:06;14.77;;;6.97;;
64601;SDS011;51013;42.630;23.192;2023-02-10T00:34:32;15.02;;;7.30;;
64601;SDS011;51013;42.630;23.192;2023-02-10T00:36:59;19.70;;;7.55;;
64601;SDS011;51013;42.630;23.192;2023-02-10T00:39:26;14.60;;;6.57;;
64601;SDS011;51013;42.630;23.192;2023-02-10T00:41:54;15.90;;;7.40;;
64601;SDS011;51013;42.630;23.192;2023-02-10T00:44:20;34.95;;;11.27;;
64601;SDS011;51013;42.630;23.192;2023-02-10T00:46:47;18.85;;;8.20;;
64601;SDS011;51013;42.630;23.192;2023-02-10T00:49:13;22.13;;;8.68;;
64601;SDS011;51013;42.630;23.192;2023-02-10T00:51:40;20.58;;;10.02;;
64601;SDS011;51013;42.630;23.192;2023-02-10T00:54:07;31.50;;;9.55;;
64601;SDS011;51013;42.630;23.192;2023-02-10T00:56:34;30.65;;;10.50;;
64601;SDS011;51013;42.630;23.192;2023-02-10T00:59:02;35.95;;;10.23;;
64601;SDS011;51013;42.630;23.192;2023-02-10T01:01:29;21.38;;;9.38;;
64601;SDS011;51013;42.630;23.192;2023-02-10T01:03:55;25.00;;;9.95;;
64601;SDS011;51013;42.630;23.192;2023-02-10T01:06:22;28.98;;;11.52;;
64601;SDS011;51013;42.630;23.192;2023-02-10T01:08:49;26.67;;;11.00;;
64601;SDS011;51013;42.630;23.192;2023-02-10T01:11:15;20.10;;;7.07;;
64601;SDS011;51013;42.630;23.192;2023-02-10T01:13:43;13.52;;;7.07;;
64601;SDS011;51013;42.630;23.192;2023-02-10T01:16:12;25.35;;;11.18;;
64601;SDS011;51013;42.630;23.192;2023-02-10T01:18:41;20.33;;;9.63;;
64601;SDS011;51013;42.630;23.192;2023-02-10T01:21:09;27.02;;;11.60;;
64601;SDS011;51013;42.630;23.192;2023-02-10T01:23:38;21.88;;;7.68;;
64601;SDS011;51013;42.630;23.192;2023-02-10T01:26:05;19.85;;;8.63;;
64601;SDS011;51013;42.630;23.192;2023-02-10T01:28:32;35.78;;;9.13;;
64601;SDS011;51013;42.630;23.192;2023-02-10T01:31:03;24.45;;;9.52;;
64601;SDS011;51013;42.630;23.192;2023-02-10T01:33:32;23.25;;;8.50;;
64601;SDS011;51013;42.630;23.192;2023-02-10T01:36:02;35.40;;;11.90;;
64601;SDS011;51013;42.630;23.192;2023-02-10T01:38:30;33.80;;;10.38;;
64601;SDS011;51013;42.630;23.192;2023-02-10T01:40:58;28.38;;;9.52;;
64601;SDS011;51013;42.630;23.192;2023-02-10T01:43:24;28.08;;;9.20;;
64601;SDS011;51013;42.630;23.192;2023-02-10T01:45:51;29.20;;;11.30;;
64601;SDS011;51013;42.630;23.192;2023-02-10T01:48:18;23.48;;;11.18;;
64601;SDS011;51013;42.630;23.192;2023-02-10T01:50:48;37.35;;;10.57;;
64601;SDS011;51013;42.630;23.192;2023-02-10T01:53:17;34.45;;;13.55;;
64601;SDS011;51013;42.630;23.192;2023-02-10T01:55:46;28.13;;;12.32;;
64601;SDS011;51013;42.630;23.192;2023-02-10T01:58:17;28.20;;;11.93;;
64601;SDS011;51013;42.630;23.192;2023-02-10T02:00:46;39.03;;;12.23;;
64601;SDS011;51013;42.630;23.192;2023-02-10T02:03:13;27.60;;;13.18;;
64601;SDS011;51013;42.630;23.192;2023-02-10T02:05:40;29.25;;;13.07;;
64601;SDS011;51013;42.630;23.192;2023-02-10T02:08:11;38.05;;;14.23;;
64601;SDS011;51013;42.630;23.192;2023-02-10T02:13:39;48.03;;;11.63;;
64601;SDS011;51013;42.630;23.192;2023-02-10T02:16:15;19.15;;;7.65;;
64601;SDS011;51013;42.630;23.192;2023-02-10T02:18:54;29.70;;;12.68;;
64601;SDS011;51013;42.630;23.192;2023-02-10T02:21:36;33.25;;;11.52;;
64601;SDS011;51013;42.630;23.192;2023-02-10T02:24:27;30.23;;;12.73;;
64601;SDS011;51013;42.630;23.192;2023-02-10T02:30:11;30.02;;;12.50;;
64601;SDS011;51013;42.630;23.192;2023-02-10T02:32:54;38.40;;;12.82;;
64601;SDS011;51013;42.630;23.192;2023-02-10T02:35:28;25.30;;;12.10;;
64601;SDS011;51013;42.630;23.192;2023-02-10T02:38:02;16.10;;;7.63;;
64601;SDS011;51013;42.630;23.192;2023-02-10T02:40:29;33.05;;;12.80;;
64601;SDS011;51013;42.630;23.192;2023-02-10T02:42:56;31.42;;;12.63;;
64601;SDS011;51013;42.630;23.192;2023-02-10T02:45:25;16.10;;;10.07;;
64601;SDS011;51013;42.630;23.192;2023-02-10T02:48:01;38.58;;;15.00;;
64601;SDS011;51013;42.630;23.192;2023-02-10T02:50:38;40.28;;;13.93;;
64601;SDS011;51013;42.630;23.192;2023-02-10T02:53:19;25.10;;;10.43;;
64601;SDS011;51013;42.630;23.192;2023-02-10T02:55:57;34.10;;;13.75;;
64601;SDS011;51013;42.630;23.192;2023-02-10T02:58:31;37.90;;;15.32;;
64601;SDS011;51013;42.630;23.192;2023-02-10T03:01:06;24.00;;;12.05;;
64601;SDS011;51013;42.630;23.192;2023-02-10T03:03:39;25.13;;;12.18;;
64601;SDS011;51013;42.630;23.192;2023-02-10T03:06:06;31.27;;;11.88;;
64601;SDS011;51013;42.630;23.192;2023-02-10T03:08:34;42.13;;;12.10;;
64601;SDS011;51013;42.630;23.192;2023-02-10T03:11:04;57.60;;;14.60;;
64601;SDS011;51013;42.630;23.192;2023-02-10T03:13:31;24.35;;;10.88;;
64601;SDS011;51013;42.630;23.192;2023-02-10T03:15:57;32.08;;;14.32;;
64601;SDS011;51013;42.630;23.192;2023-02-10T03:18:25;20.52;;;10.85;;
64601;SDS011;51013;42.630;23.192;2023-02-10T03:20:53;19.92;;;8.00;;
64601;SDS011;51013;42.630;23.192;2023-02-10T03:23:20;25.67;;;11.80;;
64601;SDS011;51013;42.630;23.192;2023-02-10T03:25:46;26.17;;;11.32;;
64601;SDS011;51013;42.630;23.192;2023-02-10T03:28:13;30.67;;;11.10;;
64601;SDS011;51013;42.630;23.192;2023-02-10T03:30:40;29.48;;;12.43;;
64601;SDS011;51013;42.630;23.192;2023-02-10T03:33:11;31.60;;;12.10;;
64601;SDS011;51013;42.630;23.192;2023-02-10T03:35:39;33.50;;;11.60;;
64601;SDS011;51013;42.630;23.192;2023-02-10T03:38:07;29.13;;;11.57;;
64601;SDS011;51013;42.630;23.192;2023-02-10T03:40:34;23.17;;;10.80;;
64601;SDS011;51013;42.630;23.192;2023-02-10T03:43:01;18.85;;;9.10;;
64601;SDS011;51013;42.630;23.192;2023-02-10T03:45:28;19.80;;;9.23;;
64601;SDS011;51013;42.630;23.192;2023-02-10T03:47:55;23.92;;;10.57;;
64601;SDS011;51013;42.630;23.192;2023-02-10T03:50:23;18.95;;;8.13;;
64601;SDS011;51013;42.630;23.192;2023-02-10T03:52:51;33.33;;;9.02;;
64601;SDS011;51013;42.630;23.192;2023-02-10T03:55:19;21.95;;;8.02;;
64601;SDS011;51013;42.630;23.192;2023-02-10T03:57:45;22.25;;;8.82;;
64601;SDS011;51013;42.630;23.192;2023-02-10T04:00:13;19.45;;;8.80;;
64601;SDS011;51013;42.630;23.192;2023-02-10T04:02:41;17.30;;;8.05;;
64601;SDS011;51013;42.630;23.192;2023-02-10T04:05:07;15.50;;;6.13;;
64601;SDS011;51013;42.630;23.192;2023-02-10T04:07:34;25.08;;;7.05;;
64601;SDS011;51013;42.630;23.192;2023-02-10T04:10:01;13.68;;;7.60;;
64601;SDS011;51013;42.630;23.192;2023-02-10T04:12:29;14.07;;;7.57;;
64601;SDS011;51013;42.630;23.192;2023-02-10T04:14:56;28.63;;;9.45;;
64601;SDS011;51013;42.630;23.192;2023-02-10T04:17:23;11.63;;;6.30;;
64601;SDS011;51013;42.630;23.192;2023-02-10T04:19:50;17.52;;;8.70;;
64601;SDS011;51013;42.630;23.192;2023-02-10T04:22:16;22.98;;;9.20;;
64601;SDS011;51013;42.630;23.192;2023-02-10T04:24:43;24.98;;;7.82;;
64601;SDS011;51013;42.630;23.192;2023-02-10T04:27:10;11.52;;;5.63;;
64601;SDS011;51013;42.630;23.192;2023-02-10T04:29:38;14.82;;;5.68;;
64601;SDS011;51013;42.630;23.192;2023-02-10T04:32:05;16.98;;;6.22;;
64601;SDS011;51013;42.630;23.192;2023-02-10T04:34:32;10.10;;;4.45;;
64601;SDS011;51013;42.630;23.192;2023-02-10T04:36:59;15.05;;;5.63;;
64601;SDS011;51013;42.630;23.192;2023-02-10T04:39:26;17.23;;;7.22;;
64601;SDS011;51013;42.630;23.192;2023-02-10T04:41:53;17.30;;;7.78;;
64601;SDS011;51013;42.630;23.192;2023-02-10T04:44:20;17.80;;;7.30;;
64601;SDS011;51013;42.630;23.192;2023-02-10T04:46:48;15.18;;;6.35;;
64601;SDS011;51013;42.630;23.192;2023-02-10T04:49:16;12.73;;;5.40;;
64601;SDS011;51013;42.630;23.192;2023-02-10T04:51:43;15.60;;;7.22;;
64601;SDS011;51013;42.630;23.192;2023-02-10T04:54:10;13.80;;;5.88;;
64601;SDS011;51013;42.630;23.192;2023-02-10T04:56:37;11.32;;;5.05;;
64601;SDS011;51013;42.630;23.192;2023-02-10T04:59:03;17.08;;;7.50;;
64601;SDS011;51013;42.630;23.192;2023-02-10T05:01:30;8.48;;;5.53;;
64601;SDS011;51013;42.630;23.192;2023-02-10T05:03:58;13.77;;;7.63;;
64601;SDS011;51013;42.630;23.192;2023-02-10T05:06:25;22.30;;;7.93;;
64601;SDS011;51013;42.630;23.192;2023-02-10T05:08:52;19.58;;;8.50;;
64601;SDS011;51013;42.630;23.192;2023-02-10T05:11:18;15.25;;;6.07;;
64601;SDS011;51013;42.630;23.192;2023-02-10T05:13:45;13.73;;;6.28;;
64601;SDS011;51013;42.630;23.192;2023-02-10T05:16:13;11.15;;;5.70;;
64601;SDS011;51013;42.630;23.192;2023-02-10T05:18:41;13.10;;;6.13;;
64601;SDS011;51013;42.630;23.192;2023-02-10T05:21:09;13.57;;;5.40;;
64601;SDS011;51013;42.630;23.192;2023-02-10T05:23:38;15.98;;;5.78;;
64601;SDS011;51013;42.630;23.192;2023-02-10T05:26:05;14.93;;;6.97;;
64601;SDS011;51013;42.630;23.192;2023-02-10T05:28:32;22.63;;;9.35;;
64601;SDS011;51013;42.630;23.192;2023-02-10T05:30:59;15.38;;;6.97;;
64601;SDS011;51013;42.630;23.192;2023-02-10T05:33:25;10.13;;;5.43;;
64601;SDS011;51013;42.630;23.192;2023-02-10T05:35:52;12.23;;;4.72;;
64601;SDS011;51013;42.630;23.192;2023-02-10T05:38:20;18.98;;;6.97;;
64601;SDS011;51013;42.630;23.192;2023-02-10T05:40:48;17.70;;;6.55;;
64601;SDS011;51013;42.630;23.192;2023-02-10T05:43:15;22.33;;;8.68;;
64601;SDS011;51013;42.630;23.192;2023-02-10T05:45:42;12.80;;;7.38;;
64601;SDS011;51013;42.630;23.192;2023-02-10T05:48:11;14.48;;;7.47;;
64601;SDS011;51013;42.630;23.192;2023-02-10T05:50:38;26.83;;;11.82;;
64601;SDS011;51013;42.630;23.192;2023-02-10T05:53:06;13.65;;;7.80;;
64601;SDS011;51013;42.630;23.192;2023-02-10T05:55:35;19.48;;;8.75;;
64601;SDS011;51013;42.630;23.192;2023-02-10T05:58:02;17.73;;;8.55;;
64601;SDS011;51013;42.630;23.192;2023-02-10T06:00:29;17.83;;;8.98;;
64601;SDS011;51013;42.630;23.192;2023-02-10T06:02:55;23.73;;;9.20;;
64601;SDS011;51013;42.630;23.192;2023-02-10T06:05:22;27.55;;;10.35;;
64601;SDS011;51013;42.630;23.192;2023-02-10T06:07:49;18.98;;;9.40;;
64601;SDS011;51013;42.630;23.192;2023-02-10T06:10:15;17.65;;;7.82;;
64601;SDS011;51013;42.630;23.192;2023-02-10T06:12:44;37.63;;;14.00;;
64601;SDS011;51013;42.630;23.192;2023-02-10T06:15:11;29.52;;;11.05;;
64601;SDS011;51013;42.630;23.192;2023-02-10T06:17:38;20.52;;;11.20;;
64601;SDS011;51013;42.630;23.192;2023-02-10T06:20:05;29.85;;;13.40;;
64601;SDS011;51013;42.630;23.192;2023-02-10T06:22:33;30.42;;;12.02;;
64601;SDS011;51013;42.630;23.192;2023-02-10T06:24:59;20.48;;;10.00;;
64601;SDS011;51013;42.630;23.192;2023-02-10T06:27:26;32.88;;;14.93;;
64601;SDS011;51013;42.630;23.192;2023-02-10T06:29:54;26.13;;;11.88;;
64601;SDS011;51013;42.630;23.192;2023-02-10T06:32:21;22.00;;;12.70;;
64601;SDS011;51013;42.630;23.192;2023-02-10T06:34:47;28.00;;;11.93;;
64601;SDS011;51013;42.630;23.192;2023-02-10T06:37:14;19.73;;;9.68;;
64601;SDS011;51013;42.630;23.192;2023-02-10T06:39:41;32.83;;;13.00;;
64601;SDS011;51013;42.630;23.192;2023-02-10T06:42:07;24.00;;;12.38;;
64601;SDS011;51013;42.630;23.192;2023-02-10T06:44:34;19.90;;;10.82;;
64601;SDS011;51013;42.630;23.192;2023-02-10T06:47:02;38.83;;;12.50;;
64601;SDS011;51013;42.630;23.192;2023-02-10T06:49:29;27.60;;;12.70;;
64601;SDS011;51013;42.630;23.192;2023-02-10T06:51:55;21.83;;;11.57;;
64601;SDS011;51013;42.630;23.192;2023-02-10T06:54:22;30.55;;;10.10;;
64601;SDS011;51013;42.630;23.192;2023-02-10T06:56:49;18.98;;;8.75;;
64601;SDS011;51013;42.630;23.192;2023-02-10T06:59:16;30.25;;;13.30;;
64601;SDS011;51013;42.630;23.192;2023-02-10T07:01:43;41.78;;;14.93;;
64601;SDS011;51013;42.630;23.192;2023-02-10T07:04:11;70.25;;;19.20;;
64601;SDS011;51013;42.630;23.192;2023-02-10T07:06:38;49.97;;;21.98;;
64601;SDS011;51013;42.630;23.192;2023-02-10T07:09:05;71.63;;;25.88;;
64601;SDS011;51013;42.630;23.192;2023-02-10T07:11:32;59.55;;;21.70;;
64601;SDS011;51013;42.630;23.192;2023-02-10T07:13:59;64.32;;;23.58;;
64601;SDS011;51013;42.630;23.192;2023-02-10T07:16:26;68.32;;;24.85;;
64601;SDS011;51013;42.630;23.192;2023-02-10T07:18:55;76.38;;;32.67;;
64601;SDS011;51013;42.630;23.192;2023-02-10T07:21:23;65.57;;;30.52;;
64601;SDS011;51013;42.630;23.192;2023-02-10T07:23:50;94.40;;;36.95;;
64601;SDS011;51013;42.630;23.192;2023-02-10T07:26:17;116.60;;;44.25;;
64601;SDS011;51013;42.630;23.192;2023-02-10T07:28:44;85.35;;;34.03;;
64601;SDS011;51013;42.630;23.192;2023-02-10T07:31:10;95.13;;;36.00;;
64601;SDS011;51013;42.630;23.192;2023-02-10T07:33:37;67.45;;;29.10;;
64601;SDS011;51013;42.630;23.192;2023-02-10T07:36:04;53.15;;;22.45;;
64601;SDS011;51013;42.630;23.192;2023-02-10T07:38:34;45.85;;;19.80;;
64601;SDS011;51013;42.630;23.192;2023-02-10T07:41:02;63.92;;;22.17;;
64601;SDS011;51013;42.630;23.192;2023-02-10T07:43:30;69.07;;;27.83;;
64601;SDS011;51013;42.630;23.192;2023-02-10T07:45:56;53.10;;;22.05;;
64601;SDS011;51013;42.630;23.192;2023-02-10T07:48:23;44.92;;;18.90;;
64601;SDS011;51013;42.630;23.192;2023-02-10T07:50:50;50.45;;;17.02;;
64601;SDS011;51013;42.630;23.192;2023-02-10T07:53:17;35.13;;;13.13;;
64601;SDS011;51013;42.630;23.192;2023-02-10T07:55:45;43.17;;;15.50;;
64601;SDS011;51013;42.630;23.192;2023-02-10T07:58:12;41.53;;;15.48;;
64601;SDS011;51013;42.630;23.192;2023-02-10T08:00:39;30.83;;;11.48;;
64601;SDS011;51013;42.630;23.192;2023-02-10T08:03:08;29.55;;;11.05;;
64601;SDS011;51013;42.630;23.192;2023-02-10T08:05:37;52.78;;;15.48;;
64601;SDS011;51013;42.630;23.192;2023-02-10T08:08:04;28.73;;;11.98;;
64601;SDS011;51013;42.630;23.192;2023-02-10T08:10:31;39.15;;;14.98;;
64601;SDS011;51013;42.630;23.192;2023-02-10T08:12:59;15.50;;;6.75;;
64601;SDS011;51013;42.630;23.192;2023-02-10T08:15:26;17.58;;;7.07;;
64601;SDS011;51013;42.630;23.192;2023-02-10T08:17:52;28.83;;;11.27;;
64601;SDS011;51013;42.630;23.192;2023-02-10T08:20:20;63.65;;;22.30;;
64601;SDS011;51013;42.630;23.192;2023-02-10T08:22:46;28.95;;;11.73;;
64601;SDS011;51013;42.630;23.192;2023-02-10T08:25:13;28.08;;;12.40;;
64601;SDS011;51013;42.630;23.192;2023-02-10T08:27:40;28.02;;;10.27;;
64601;SDS011;51013;42.630;23.192;2023-02-10T08:30:08;37.58;;;14.38;;
64601;SDS011;51013;42.630;23.192;2023-02-10T08:32:36;36.10;;;14.27;;
64601;SDS011;51013;42.630;23.192;2023-02-10T08:35:03;105.15;;;27.20;;
64601;SDS011;51013;42.630;23.192;2023-02-10T08:37:30;36.97;;;15.18;;
64601;SDS011;51013;42.630;23.192;2023-02-10T08:39:57;40.15;;;13.55;;
64601;SDS011;51013;42.630;23.192;2023-02-10T08:42:24;33.47;;;14.95;;
64601;SDS011;51013;42.630;23.192;2023-02-10T08:44:51;45.13;;;17.90;;
64601;SDS011;51013;42.630;23.192;2023-02-10T08:47:19;45.63;;;16.33;;
64601;SDS011;51013;42.630;23.192;2023-02-10T08:49:46;57.92;;;17.85;;
64601;SDS011;51013;42.630;23.192;2023-02-10T08:52:13;48.10;;;16.67;;
64601;SDS011;51013;42.630;23.192;2023-02-10T08:54:40;46.63;;;18.92;;
64601;SDS011;51013;42.630;23.192;2023-02-10T08:57:07;47.53;;;17.85;;
64601;SDS011;51013;42.630;23.192;2023-02-10T08:59:34;52.92;;;18.85;;
64601;SDS011;51013;42.630;23.192;2023-02-10T09:02:01;37.72;;;15.95;;
64601;SDS011;51013;42.630;23.192;2023-02-10T09:04:29;40.90;;;15.73;;
64601;SDS011;51013;42.630;23.192;2023-02-10T09:06:57;49.03;;;17.88;;
64601;SDS011;51013;42.630;23.192;2023-02-10T09:09:24;41.03;;;16.33;;
64601;SDS011;51013;42.630;23.192;2023-02-10T09:11:52;38.13;;;16.02;;
64601;SDS011;51013;42.630;23.192;2023-02-10T09:14:20;48.40;;;20.40;;
64601;SDS011;51013;42.630;23.192;2023-02-10T09:16:47;35.50;;;13.75;;
64601;SDS011;51013;42.630;23.192;2023-02-10T09:19:15;35.38;;;15.18;;
64601;SDS011;51013;42.630;23.192;2023-02-10T09:21:43;41.63;;;16.35;;
64601;SDS011;51013;42.630;23.192;2023-02-10T09:24:10;33.97;;;14.60;;
64601;SDS011;51013;42.630;23.192;2023-02-10T09:26:36;36.35;;;13.18;;
64601;SDS011;51013;42.630;23.192;2023-02-10T09:29:03;35.15;;;13.38;;
64601;SDS011;51013;42.630;23.192;2023-02-10T09:31:30;34.13;;;12.68;;
64601;SDS011;51013;42.630;23.192;2023-02-10T09:33:58;30.42;;;12.93;;
64601;SDS011;51013;42.630;23.192;2023-02-10T09:36:25;33.58;;;13.63;;
64601;SDS011;51013;42.630;23.192;2023-02-10T09:38:54;36.33;;;14.63;;
64601;SDS011;51013;42.630;23.192;2023-02-10T09:41:25;112.35;;;36.15;;
64601;SDS011;51013;42.630;23.192;2023-02-10T09:44:08;40.55;;;16.80;;
64601;SDS011;51013;42.630;23.192;2023-02-10T09:46:44;49.53;;;19.83;;
64601;SDS011;51013;42.630;23.192;2023-02-10T09:49:19;48.78;;;20.20;;
64601;SDS011;51013;42.630;23.192;2023-02-10T09:51:57;48.95;;;19.02;;
64601;SDS011;51013;42.630;23.192;2023-02-10T09:54:35;41.95;;;18.52;;
64601;SDS011;51013;42.630;23.192;2023-02-10T09:57:02;26.30;;;9.23;;
64601;SDS011;51013;42.630;23.192;2023-02-10T09:59:31;39.88;;;14.98;;
64601;SDS011;51013;42.630;23.192;2023-02-10T10:02:01;42.40;;;18.38;;
64601;SDS011;51013;42.630;23.192;2023-02-10T10:04:37;48.15;;;18.70;;
64601;SDS011;51013;42.630;23.192;2023-02-10T10:07:10;48.20;;;17.50;;
64601;SDS011;51013;42.630;23.192;2023-02-10T10:09:50;37.80;;;16.15;;
64601;SDS011;51013;42.630;23.192;2023-02-10T10:12:24;19.20;;;10.52;;
64601;SDS011;51013;42.630;23.192;2023-02-10T10:14:51;70.80;;;26.58;;
64601;SDS011;51013;42.630;23.192;2023-02-10T10:17:24;49.20;;;19.80;;
64601;SDS011;51013;42.630;23.192;2023-02-10T10:20:14;46.53;;;18.52;;
64601;SDS011;51013;42.630;23.192;2023-02-10T10:22:54;43.92;;;16.25;;
64601;SDS011;51013;42.630;23.192;2023-02-10T10:25:36;45.63;;;19.35;;
64601;SDS011;51013;42.630;23.192;2023-02-10T10:28:18;37.90;;;15.65;;
64601;SDS011;51013;42.630;23.192;2023-02-10T10:30:58;38.45;;;17.88;;
64601;SDS011;51013;42.630;23.192;2023-02-10T10:33:29;52.95;;;17.90;;
64601;SDS011;51013;42.630;23.192;2023-02-10T10:36:02;48.38;;;17.70;;
64601;SDS011;51013;42.630;23.192;2023-02-10T10:38:30;46.08;;;16.65;;
64601;SDS011;51013;42.630;23.192;2023-02-10T10:41:02;38.75;;;17.88;;
64601;SDS011;51013;42.630;23.192;2023-02-10T10:43:32;47.83;;;18.27;;
64601;SDS011;51013;42.630;23.192;2023-02-10T10:46:06;48.53;;;19.60;;
64601;SDS011;51013;42.630;23.192;2023-02-10T10:48:40;33.45;;;15.00;;
64601;SDS011;51013;42.630;23.192;2023-02-10T10:51:08;39.65;;;16.95;;
64601;SDS011;51013;42.630;23.192;2023-02-10T10:53:37;39.22;;;16.75;;
64601;SDS011;51013;42.630;23.192;2023-02-10T10:56:10;37.10;;;18.07;;
64601;SDS011;51013;42.630;23.192;2023-02-10T10:58:41;42.42;;;19.13;;
64601;SDS011;51013;42.630;23.192;2023-02-10T11:01:10;42.92;;;19.30;;
64601;SDS011;51013;42.630;23.192;2023-02-10T11:03:39;47.53;;;20.08;;
64601;SDS011;51013;42.630;23.192;2023-02-10T11:06:07;39.38;;;18.45;;
64601;SDS011;51013;42.630;23.192;2023-02-10T11:08:36;42.70;;;18.52;;
64601;SDS011;51013;42.630;23.192;2023-02-10T11:13:37;40.55;;;16.45;;
64601;SDS011;51013;42.630;23.192;2023-02-10T11:16:07;43.65;;;19.33;;
64601;SDS011;51013;42.630;23.192;2023-02-10T11:18:36;59.88;;;25.45;;
64601;SDS011;51013;42.630;23.192;2023-02-10T11:21:05;46.30;;;19.48;;
64601;SDS011;51013;42.630;23.192;2023-02-10T11:23:35;43.67;;;20.48;;
64601;SDS011;51013;42.630;23.192;2023-02-10T11:26:19;37.00;;;15.85;;
64601;SDS011;51013;42.630;23.192;2023-02-10T11:28:47;64.63;;;18.77;;
64601;SDS011;51013;42.630;23.192;2023-02-10T11:31:19;33.95;;;15.15;;
64601;SDS011;51013;42.630;23.192;2023-02-10T11:33:54;43.92;;;18.17;;
64601;SDS011;51013;42.630;23.192;2023-02-10T11:36:28;60.45;;;19.95;;
64601;SDS011;51013;42.630;23.192;2023-02-10T11:39:02;47.83;;;19.13;;
64601;SDS011;51013;42.630;23.192;2023-02-10T11:41:32;55.08;;;23.55;;
64601;SDS011;51013;42.630;23.192;2023-02-10T11:44:00;49.03;;;19.88;;
64601;SDS011;51013;42.630;23.192;2023-02-10T11:46:30;41.13;;;19.05;;
64601;SDS011;51013;42.630;23.192;2023-02-10T11:48:58;40.90;;;17.92;;
64601;SDS011;51013;42.630;23.192;2023-02-10T11:51:26;37.20;;;17.83;;
64601;SDS011;51013;42.630;23.192;2023-02-10T11:53:53;40.72;;;18.45;;
64601;SDS011;51013;42.630;23.192;2023-02-10T11:56:23;43.90;;;19.70;;
64601;SDS011;51013;42.630;23.192;2023-02-10T11:59:09;46.53;;;20.85;;
64601;SDS011;51013;42.630;23.192;2023-02-10T12:01:50;45.38;;;18.95;;
64601;SDS011;51013;42.630;23.192;2023-02-10T12:04:29;91.22;;;30.00;;
64601;SDS011;51013;42.630;23.192;2023-02-10T12:07:11;42.35;;;18.13;;
64601;SDS011;51013;42.630;23.192;2023-02-10T12:09:48;57.65;;;22.02;;
64601;SDS011;51013;42.630;23.192;2023-02-10T12:12:22;49.78;;;23.45;;
64601;SDS011;51013;42.630;23.192;2023-02-10T12:14:57;55.38;;;23.70;;
64601;SDS011;51013;42.630;23.192;2023-02-10T12:17:33;47.45;;;20.85;;
64601;SDS011;51013;42.630;23.192;2023-02-10T12:20:20;56.90;;;23.70;;
64601;SDS011;51013;42.630;23.192;2023-02-10T12:26:02;135.38;;;48.70;;
64601;SDS011;51013;42.630;23.192;2023-02-10T12:28:39;188.50;;;53.97;;
64601;SDS011;51013;42.630;23.192;2023-02-10T12:31:19;145.13;;;47.33;;
64601;SDS011;51013;42.630;23.192;2023-02-10T12:34:01;92.07;;;34.88;;
64601;SDS011;51013;42.630;23.192;2023-02-10T12:36:40;49.35;;;22.27;;
64601;SDS011;51013;42.630;23.192;2023-02-10T12:39:17;83.43;;;32.22;;
64601;SDS011;51013;42.630;23.192;2023-02-10T12:41:51;64.25;;;31.83;;
64601;SDS011;51013;42.630;23.192;2023-02-10T12:44:29;76.72;;;31.80;;
64601;SDS011;51013;42.630;23.192;2023-02-10T12:47:11;56.33;;;24.80;;
64601;SDS011;51013;42.630;23.192;2023-02-10T12:52:23;70.70;;;27.98;;
64601;SDS011;51013;42.630;23.192;2023-02-10T12:54:57;49.08;;;21.10;;
64601;SDS011;51013;42.630;23.192;2023-02-10T12:57:28;53.83;;;26.08;;
64601;SDS011;51013;42.630;23.192;2023-02-10T12:59:59;47.10;;;23.00;;
64601;SDS011;51013;42.630;23.192;2023-02-10T13:02:36;62.13;;;26.63;;
64601;SDS011;51013;42.630;23.192;2023-02-10T13:05:07;44.50;;;23.45;;
64601;SDS011;51013;42.630;23.192;2023-02-10T13:07:39;91.38;;;40.03;;
64601;SDS011;51013;42.630;23.192;2023-02-10T13:10:20;52.28;;;23.52;;
64601;SDS011;51013;42.630;23.192;2023-02-10T13:12:54;65.80;;;26.80;;
64601;SDS011;51013;42.630;23.192;2023-02-10T13:15:28;43.50;;;19.88;;
64601;SDS011;51013;42.630;23.192;2023-02-10T13:18:01;49.65;;;22.88;;
64601;SDS011;51013;42.630;23.192;2023-02-10T13:20:30;49.05;;;21.33;;
64601;SDS011;51013;42.630;23.192;2023-02-10T13:23:10;61.47;;;25.35;;
64601;SDS011;51013;42.630;23.192;2023-02-10T13:25:49;46.13;;;20.63;;
64601;SDS011;51013;42.630;23.192;2023-02-10T13:28:25;58.10;;;24.02;;
64601;SDS011;51013;42.630;23.192;2023-02-10T13:31:04;55.35;;;21.92;;
64601;SDS011;51013;42.630;23.192;2023-02-10T13:33:42;55.03;;;23.58;;
64601;SDS011;51013;42.630;23.192;2023-02-10T13:36:17;54.63;;;22.27;;
64601;SDS011;51013;42.630;23.192;2023-02-10T13:38:56;48.88;;;20.55;;
64601;SDS011;51013;42.630;23.192;2023-02-10T13:41:26;67.72;;;28.42;;
64601;SDS011;51013;42.630;23.192;2023-02-10T13:44:24;45.67;;;20.48;;
64601;SDS011;51013;42.630;23.192;2023-02-10T13:46:56;36.65;;;15.85;;
64601;SDS011;51013;42.630;23.192;2023-02-10T13:49:48;41.13;;;18.95;;
64601;SDS011;51013;42.630;23.192;2023-02-10T13:52:18;47.70;;;17.40;;
64601;SDS011;51013;42.630;23.192;2023-02-10T13:54:52;55.63;;;21.30;;
64601;SDS011;51013;42.630;23.192;2023-02-10T13:57:28;47.15;;;19.55;;
64601;SDS011;51013;42.630;23.192;2023-02-10T14:03:02;48.33;;;19.38;;
64601;SDS011;51013;42.630;23.192;2023-02-10T14:05:51;40.72;;;17.00;;
64601;SDS011;51013;42.630;23.192;2023-02-10T14:08:25;43.15;;;16.05;;
64601;SDS011;51013;42.630;23.192;2023-02-10T14:10:56;40.70;;;16.48;;
64601;SDS011;51013;42.630;23.192;2023-02-10T14:13:26;67.18;;;23.77;;
64601;SDS011;51013;42.630;23.192;2023-02-10T14:15:57;48.92;;;19.83;;
64601;SDS011;51013;42.630;23.192;2023-02-10T14:18:26;39.25;;;17.23;;
64601;SDS011;51013;42.630;23.192;2023-02-10T14:20:56;42.92;;;17.17;;
64601;SDS011;51013;42.630;23.192;2023-02-10T14:23:24;31.73;;;14.13;;
64601;SDS011;51013;42.630;23.192;2023-02-10T14:25:54;29.83;;;12.98;;
64601;SDS011;51013;42.630;23.192;2023-02-10T14:28:24;46.67;;;18.75;;
64601;SDS011;51013;42.630;23.192;2023-02-10T14:30:54;50.47;;;21.90;;
64601;SDS011;51013;42.630;23.192;2023-02-10T14:33:25;31.92;;;13.32;;
64601;SDS011;51013;42.630;23.192;2023-02-10T14:35:58;38.47;;;14.93;;
64601;SDS011;51013;42.630;23.192;2023-02-10T14:38:27;24.60;;;10.98;;
64601;SDS011;51013;42.630;23.192;2023-02-10T14:40:54;42.50;;;17.23;;
64601;SDS011;51013;42.630;23.192;2023-02-10T14:43:24;41.83;;;16.40;;